Time;durP1;ratioP1;P1;durP2;ratioP2;P2;SDS_P1;SDS_P2;PMS_P1;PMS_P2;Temp;Humidity;BMP_temperature;BMP_pressure;BME280_temperature;BME280_humidity;BME280_pressure;Samples;Min_cycle;Max_cycle;Signal;HPM_P1;HPM_P2
2021/01/10 00:08:00;;;;;;;54.90;18.70;;;2.30;99.90;;;;;;6749813;88;20165;-79
2021/01/10 00:18:01;;;;;;;51.63;18.48;;;2.30;99.90;;;;;;6749991;88;20218;-78
2021/01/10 00:28:01;;;;;;;42.30;16.30;;;2.20;99.90;;;;;;6749628;88;20222;-78
2021/01/10 00:38:02;;;;;;;35.85;15.00;;;2.20;99.90;;;;;;6746268;88;20555;-80
2021/01/10 00:48:03;;;;;;;37.97;15.10;;;2.10;99.90;;;;;;6749118;88;20195;-79
2021/01/10 00:58:03;;;;;;;36.15;15.00;;;2.00;99.90;;;;;;6746991;88;20227;-79
2021/01/10 01:08:05;;;;;;;41.72;16.02;;;2.10;99.90;;;;;;6742834;88;20689;-78
2021/01/10 01:18:06;;;;;;;46.37;16.92;;;2.20;99.90;;;;;;6733161;88;20869;-78
2021/01/10 01:28:06;;;;;;;48.37;17.93;;;2.10;99.90;;;;;;6729850;88;20260;-79
2021/01/10 01:38:07;;;;;;;47.65;17.55;;;2.00;99.90;;;;;;6728768;88;20551;-78
2021/01/10 01:48:08;;;;;;;55.78;18.55;;;2.10;99.90;;;;;;6727789;88;20215;-79
2021/01/10 01:58:08;;;;;;;51.67;19.27;;;2.00;99.90;;;;;;6734376;88;20209;-79
2021/01/10 02:08:11;;;;;;;47.62;17.80;;;2.00;99.90;;;;;;6733968;88;20762;-79
2021/01/10 02:18:52;;;;;;;52.70;18.02;;;1.80;99.90;;;;;;6768635;77;20276;-78
2021/01/10 02:28:53;;;;;;;56.42;18.92;;;1.80;99.90;;;;;;6761055;87;20340;-76
2021/01/10 02:39:05;;;;;;;51.95;19.58;;;1.80;99.90;;;;;;6772044;87;20162;-77
2021/01/10 02:49:06;;;;;;;53.92;19.42;;;1.80;99.90;;;;;;6769425;87;20486;-78
2021/01/10 02:59:12;;;;;;;50.70;18.67;;;1.90;99.90;;;;;;6770803;87;20664;-76
2021/01/10 03:09:15;;;;;;;51.53;19.87;;;1.80;99.90;;;;;;6768072;88;20241;-76
2021/01/10 03:19:16;;;;;;;49.80;19.45;;;1.90;99.90;;;;;;6768099;87;20169;-76
2021/01/10 03:29:16;;;;;;;51.42;20.08;;;2.00;99.90;;;;;;6772236;88;20210;-76
2021/01/10 03:39:17;;;;;;;55.08;20.85;;;2.00;99.90;;;;;;6769299;87;20493;-76
2021/01/10 03:49:18;;;;;;;57.90;21.10;;;2.10;99.90;;;;;;6771495;88;20412;-75
2021/01/10 03:59:19;;;;;;;61.47;21.95;;;2.10;99.90;;;;;;6773798;87;20284;-76
2021/01/10 04:09:23;;;;;;;66.93;22.30;;;2.10;99.90;;;;;;6773426;87;20152;-75
2021/01/10 04:19:26;;;;;;;66.82;23.38;;;2.00;99.90;;;;;;6770990;87;20268;-76
2021/01/10 04:29:27;;;;;;;62.83;21.83;;;2.00;99.90;;;;;;6767968;88;20188;-77
2021/01/10 04:39:28;;;;;;;63.87;21.25;;;2.10;99.90;;;;;;6769849;88;20187;-76
2021/01/10 04:49:29;;;;;;;60.30;21.15;;;2.10;99.90;;;;;;6766540;87;20282;-76
2021/01/10 04:59:30;;;;;;;54.15;19.55;;;2.10;99.90;;;;;;6766907;88;20169;-76
2021/01/10 05:09:31;;;;;;;55.58;19.60;;;2.20;99.90;;;;;;6763958;88;20169;-75
2021/01/10 05:19:32;;;;;;;52.28;19.25;;;2.00;99.90;;;;;;6770516;88;20169;-76
2021/01/10 05:29:33;;;;;;;50.10;19.42;;;1.90;99.90;;;;;;6771671;88;20829;-75
2021/01/10 05:39:34;;;;;;;58.40;20.40;;;1.90;99.90;;;;;;6771587;88;20216;-76
2021/01/10 05:49:43;;;;;;;58.30;21.35;;;1.90;99.90;;;;;;6768328;87;20211;-75
2021/01/10 05:59:48;;;;;;;59.00;21.20;;;1.90;99.90;;;;;;6768328;87;20996;-77
2021/01/10 06:09:49;;;;;;;60.03;21.15;;;1.80;99.90;;;;;;6766724;88;20165;-75
2021/01/10 06:19:50;;;;;;;58.33;20.98;;;1.80;99.90;;;;;;6767202;88;20189;-75
2021/01/10 06:29:54;;;;;;;57.75;19.87;;;1.80;99.90;;;;;;6769963;87;20197;-74
2021/01/10 06:39:58;;;;;;;62.05;20.73;;;1.90;99.90;;;;;;6770189;87;20794;-75
2021/01/10 06:49:58;;;;;;;63.45;20.08;;;1.90;99.90;;;;;;6766116;88;20203;-76
2021/01/10 07:00:08;;;;;;;56.10;19.45;;;1.90;99.90;;;;;;6749078;88;20200;-77
2021/01/10 07:10:11;;;;;;;58.22;19.05;;;2.00;99.90;;;;;;6747748;88;20490;-75
2021/01/10 07:20:34;;;;;;;51.17;19.42;;;1.90;99.90;;;;;;6751070;88;20679;-75
2021/01/10 07:30:35;;;;;;;60.97;19.62;;;2.00;99.90;;;;;;6748872;87;20195;-76
2021/01/10 07:40:36;;;;;;;56.83;18.62;;;2.00;99.90;;;;;;6753347;88;20169;-76
2021/01/10 07:50:36;;;;;;;58.10;19.33;;;2.10;99.90;;;;;;6753847;88;20303;-77
2021/01/10 08:00:46;;;;;;;58.87;18.62;;;2.30;99.90;;;;;;6760050;87;20185;-77
2021/01/10 08:10:54;;;;;;;53.00;16.83;;;2.20;99.90;;;;;;6749337;87;20531;-77
2021/01/10 08:20:55;;;;;;;54.67;18.90;;;2.10;99.90;;;;;;6753812;88;20202;-76
2021/01/10 08:31:01;;;;;;;59.43;18.20;;;2.10;99.90;;;;;;6752570;88;20204;-76
2021/01/10 08:41:01;;;;;;;57.15;18.52;;;2.30;99.90;;;;;;6749808;88;20525;-76
2021/01/10 08:51:02;;;;;;;56.37;18.27;;;2.20;99.90;;;;;;6750603;88;20830;-76
2021/01/10 09:01:02;;;;;;;57.05;18.37;;;2.30;99.90;;;;;;6752938;87;20260;-75
2021/01/10 09:11:23;;;;;;;52.90;17.80;;;2.40;99.90;;;;;;6753880;88;20211;-76
2021/01/10 09:21:27;;;;;;;45.05;15.38;;;2.40;99.90;;;;;;6756115;87;20173;-75
2021/01/10 09:31:45;;;;;;;41.60;15.13;;;2.60;99.90;;;;;;6751488;88;20216;-76
2021/01/10 09:41:55;;;;;;;38.78;13.70;;;2.60;99.90;;;;;;6752632;87;20220;-76
2021/01/10 09:51:58;;;;;;;34.55;12.90;;;2.70;99.90;;;;;;6752608;87;20675;-76
2021/01/10 10:02:25;;;;;;;31.35;11.38;;;2.70;99.90;;;;;;6749618;87;20218;-77
2021/01/10 10:12:26;;;;;;;30.90;10.67;;;3.00;99.90;;;;;;6755467;87;20206;-76
2021/01/10 10:22:32;;;;;;;39.35;13.25;;;2.90;99.90;;;;;;6756046;87;20177;-76
2021/01/10 10:32:32;;;;;;;42.03;13.67;;;2.90;99.90;;;;;;6754029;87;20239;-74
2021/01/10 10:42:33;;;;;;;35.50;11.98;;;2.90;99.90;;;;;;6754794;87;20195;-76
2021/01/10 10:52:34;;;;;;;35.83;12.15;;;3.10;99.90;;;;;;6751846;87;20241;-73
2021/01/10 11:02:34;;;;;;;35.75;11.90;;;3.30;99.90;;;;;;6748085;88;20591;-76
2021/01/10 11:12:35;;;;;;;32.00;11.15;;;3.40;99.90;;;;;;6747865;87;20219;-76
2021/01/10 11:22:36;;;;;;;27.62;9.30;;;3.40;99.90;;;;;;6749212;88;20194;-76
2021/01/10 11:32:37;;;;;;;29.98;10.80;;;3.50;99.90;;;;;;6749019;87;20172;-77
2021/01/10 11:42:37;;;;;;;30.08;9.85;;;3.60;99.90;;;;;;6757451;87;20206;-81
2021/01/10 11:52:38;;;;;;;26.20;10.00;;;3.70;99.90;;;;;;6760001;87;20204;-74
2021/01/10 12:02:40;;;;;;;29.12;9.77;;;3.80;99.90;;;;;;6752007;87;20197;-75
2021/01/10 12:12:41;;;;;;;27.00;9.57;;;3.70;99.90;;;;;;6747978;88;20213;-76
2021/01/10 12:22:42;;;;;;;23.85;9.05;;;3.80;99.90;;;;;;6747150;87;20183;-74
2021/01/10 12:32:42;;;;;;;21.73;8.57;;;4.00;99.90;;;;;;6747804;88;20179;-73
2021/01/10 12:42:43;;;;;;;20.30;8.15;;;4.10;99.90;;;;;;6753157;87;21090;-74
2021/01/10 12:52:44;;;;;;;21.05;8.68;;;4.20;99.90;;;;;;6755506;87;20239;-73
2021/01/10 13:02:44;;;;;;;19.87;8.35;;;4.30;99.90;;;;;;6746796;87;20203;-74
2021/01/10 13:12:45;;;;;;;19.60;7.72;;;4.50;99.90;;;;;;6756656;87;20524;-74
2021/01/10 13:22:46;;;;;;;17.98;7.07;;;4.40;99.90;;;;;;6751051;87;20216;-74
2021/01/10 13:32:46;;;;;;;17.62;8.05;;;4.20;99.90;;;;;;6751291;87;20785;-74
2021/01/10 13:42:47;;;;;;;22.35;8.35;;;4.50;99.90;;;;;;6756495;87;20188;-74
2021/01/10 13:52:47;;;;;;;22.27;8.70;;;4.10;99.90;;;;;;6760865;87;20303;-73
2021/01/10 14:02:48;;;;;;;21.10;7.47;;;3.80;99.90;;;;;;6756790;87;20186;-74
2021/01/10 14:12:50;;;;;;;18.52;7.43;;;3.80;99.90;;;;;;6754105;87;20188;-74
2021/01/10 14:22:51;;;;;;;20.00;8.13;;;4.00;99.90;;;;;;6743854;87;20504;-73
2021/01/10 14:32:51;;;;;;;22.70;8.27;;;3.90;99.90;;;;;;6745109;87;20243;-72
2021/01/10 14:42:52;;;;;;;21.80;9.07;;;3.70;99.90;;;;;;6743391;88;20177;-72
2021/01/10 14:52:53;;;;;;;25.90;9.85;;;3.90;99.90;;;;;;6747864;87;20204;-71
2021/01/10 15:02:53;;;;;;;24.98;10.57;;;3.80;99.90;;;;;;6753362;87;20255;-73
2021/01/10 15:12:54;;;;;;;21.05;8.70;;;3.70;99.90;;;;;;6745746;87;20215;-74
2021/01/10 15:23:01;;;;;;;24.55;9.57;;;3.60;99.90;;;;;;6759968;87;20188;-74
2021/01/10 15:33:01;;;;;;;31.23;10.32;;;3.40;99.90;;;;;;6744045;87;20247;-73
2021/01/10 15:43:02;;;;;;;27.65;10.15;;;3.20;99.90;;;;;;6740707;88;20176;-72
2021/01/10 15:53:03;;;;;;;28.60;10.07;;;3.10;99.90;;;;;;6743749;88;20197;-73
2021/01/10 16:03:04;;;;;;;30.45;10.98;;;3.00;99.90;;;;;;6748890;88;20184;-73
2021/01/10 16:13:05;;;;;;;31.37;11.00;;;3.00;99.90;;;;;;6745163;87;20263;-74
2021/01/10 16:23:05;;;;;;;32.60;11.73;;;2.80;99.90;;;;;;6750447;87;20295;-74
2021/01/10 16:33:06;;;;;;;27.98;11.50;;;2.90;99.90;;;;;;6741874;87;20249;-74
2021/01/10 16:43:11;;;;;;;37.08;13.20;;;2.70;99.90;;;;;;6747060;88;20231;-73
2021/01/10 16:53:11;;;;;;;28.80;11.38;;;2.50;99.90;;;;;;6755887;87;20181;-73
2021/01/10 17:03:12;;;;;;;29.17;11.85;;;2.30;99.90;;;;;;6745937;87;20183;-73
2021/01/10 17:13:12;;;;;;;30.77;12.18;;;2.20;99.90;;;;;;6744786;88;20190;-75
2021/01/10 17:23:13;;;;;;;38.05;12.80;;;2.10;99.90;;;;;;6744188;87;20806;-72
2021/01/10 17:33:14;;;;;;;36.92;12.40;;;2.00;99.90;;;;;;6749718;88;20343;-72
2021/01/10 17:43:14;;;;;;;35.50;12.73;;;1.90;99.90;;;;;;6755273;88;20736;-77
2021/01/10 17:53:15;;;;;;;37.67;13.62;;;1.70;99.90;;;;;;6754945;88;20242;-75
2021/01/10 18:03:15;;;;;;;31.08;12.27;;;1.60;99.90;;;;;;6747385;88;20228;-74
2021/01/10 18:13:16;;;;;;;37.17;14.45;;;1.30;99.90;;;;;;6744023;88;20247;-74
2021/01/10 18:23:17;;;;;;;32.03;12.82;;;1.00;99.90;;;;;;6739089;88;20322;-74
2021/01/10 18:33:17;;;;;;;33.65;12.90;;;0.90;99.90;;;;;;6738819;88;20219;-74
2021/01/10 18:43:18;;;;;;;36.70;14.00;;;0.60;99.90;;;;;;6745179;88;20770;-74
2021/01/10 18:53:19;;;;;;;39.33;15.05;;;1.00;99.90;;;;;;6757143;88;20220;-74
2021/01/10 19:03:19;;;;;;;35.13;12.50;;;0.90;99.90;;;;;;6764667;88;20336;-73
2021/01/10 19:13:20;;;;;;;29.30;12.25;;;0.70;99.90;;;;;;6746658;88;20172;-74
2021/01/10 19:23:20;;;;;;;35.28;12.52;;;0.60;99.90;;;;;;6749078;88;20313;-72
2021/01/10 19:33:21;;;;;;;32.50;12.20;;;0.70;99.90;;;;;;6745191;87;20224;-74
2021/01/10 19:43:22;;;;;;;32.28;12.60;;;0.60;99.90;;;;;;6740130;87;20533;-74
2021/01/10 19:53:22;;;;;;;35.15;13.93;;;0.60;99.90;;;;;;6747974;87;20178;-74
2021/01/10 20:03:23;;;;;;;35.90;13.55;;;0.30;99.90;;;;;;6744538;88;20192;-75
2021/01/10 20:13:24;;;;;;;31.85;13.05;;;0.30;99.90;;;;;;6749946;87;21035;-74
2021/01/10 20:23:24;;;;;;;16.00;6.45;;;0.00;99.90;;;;;;6741886;88;21009;-74
2021/01/10 20:33:26;;;;;;;15.25;6.05;;;0.10;99.90;;;;;;6742313;88;20684;-74
2021/01/10 20:43:26;;;;;;;15.95;5.30;;;0.20;99.90;;;;;;6750124;88;20364;-75
2021/01/10 20:53:27;;;;;;;14.10;5.68;;;0.30;99.90;;;;;;6756635;88;20197;-73
2021/01/10 21:03:27;;;;;;;12.37;5.60;;;0.30;99.90;;;;;;6753754;87;20335;-74
2021/01/10 21:13:28;;;;;;;11.05;5.43;;;0.30;99.90;;;;;;6753482;87;20209;-75
2021/01/10 21:23:28;;;;;;;12.73;5.32;;;0.30;99.90;;;;;;6755649;87;20211;-74
2021/01/10 21:33:30;;;;;;;11.68;5.80;;;0.30;99.90;;;;;;6755647;87;20187;-74
2021/01/10 21:43:31;;;;;;;13.13;5.93;;;0.20;99.90;;;;;;6754265;87;20197;-76
2021/01/10 21:53:31;;;;;;;13.80;5.95;;;0.20;99.90;;;;;;6756444;87;20201;-76
2021/01/10 22:03:32;;;;;;;16.62;6.53;;;0.00;99.90;;;;;;6755241;87;20519;-76
2021/01/10 22:13:33;;;;;;;15.90;6.68;;;-0.10;99.90;;;;;;6753360;88;20201;-77
2021/01/10 22:23:33;;;;;;;14.38;6.60;;;-0.10;99.90;;;;;;6754835;88;21011;-77
2021/01/10 22:33:34;;;;;;;16.58;6.95;;;0.00;99.90;;;;;;6751061;88;20283;-77
2021/01/10 22:43:34;;;;;;;14.30;6.25;;;0.00;99.90;;;;;;6760228;88;20311;-76
2021/01/10 22:53:36;;;;;;;14.45;5.93;;;-0.10;99.90;;;;;;6762559;87;20213;-76
2021/01/10 23:03:36;;;;;;;15.02;6.60;;;-0.20;99.90;;;;;;6756933;88;20181;-77
2021/01/10 23:13:37;;;;;;;13.20;5.50;;;-0.20;99.90;;;;;;6764780;88;20259;-76
2021/01/10 23:23:41;;;;;;;12.55;5.20;;;-0.20;99.90;;;;;;6769410;88;20532;-76
2021/01/10 23:33:41;;;;;;;15.05;6.07;;;-0.40;99.90;;;;;;6767750;88;20322;-75
2021/01/10 23:43:42;;;;;;;15.18;6.30;;;-0.30;99.90;;;;;;6763289;88;20182;-75
2021/01/10 23:53:44;;;;;;;19.25;7.72;;;-0.10;99.90;;;;;;6759239;88;20181;-75
